Time;durP1;ratioP1;P1;durP2;ratioP2;P2;SDS_P1;SDS_P2;PMS_P1;PMS_P2;Temp;Humidity;BMP_temperature;BMP_pressure;BME280_temperature;BME280_humidity;BME280_pressure;Samples;Min_cycle;Max_cycle;Signal;HPM_P1;HPM_P2
2022/09/24 00:01:18;;;;;;;85.00;49.15;;;13.80;99.90;;;;;;5093299;28;20071;-65
2022/09/24 00:03:52;;;;;;;79.50;49.72;;;13.50;99.90;;;;;;5093239;28;20051;-65
2022/09/24 00:06:18;;;;;;;84.93;51.55;;;13.40;99.90;;;;;;5093256;28;20086;-65
2022/09/24 00:08:46;;;;;;;86.30;51.88;;;13.90;99.90;;;;;;5093140;28;20139;-65
2022/09/24 00:11:12;;;;;;;87.95;51.25;;;13.50;99.90;;;;;;5093128;28;20094;-66
2022/09/24 00:13:39;;;;;;;88.82;50.28;;;13.50;99.90;;;;;;5092978;28;20400;-66
2022/09/24 00:16:11;;;;;;;84.38;49.92;;;13.80;99.90;;;;;;5092412;28;20662;-65
2022/09/24 00:18:37;;;;;;;86.47;49.40;;;13.70;99.90;;;;;;5092764;28;20736;-66
2022/09/24 00:21:17;;;;;;;92.53;51.00;;;13.50;99.90;;;;;;5092873;28;20052;-66
2022/09/24 00:23:47;;;;;;;93.38;51.95;;;13.70;99.90;;;;;;5092862;28;20047;-66
2022/09/24 00:28:58;;;;;;;90.65;49.45;;;14.00;99.90;;;;;;5092806;28;20083;-65
2022/09/24 00:31:24;;;;;;;88.60;51.17;;;14.20;99.90;;;;;;5092749;28;20416;-66
2022/09/24 00:33:51;;;;;;;86.47;50.92;;;13.60;99.90;;;;;;5092432;28;20442;-65
2022/09/24 00:36:18;;;;;;;82.28;49.15;;;13.80;99.90;;;;;;5091605;28;20571;-65
2022/09/24 00:38:46;;;;;;;93.63;51.92;;;13.90;99.90;;;;;;5092627;28;20083;-67
2022/09/24 00:41:12;;;;;;;87.28;52.00;;;13.90;99.90;;;;;;5091299;28;20096;-65
2022/09/24 00:43:38;;;;;;;88.18;51.45;;;13.80;99.90;;;;;;5092264;28;20134;-65
2022/09/24 00:46:35;;;;;;;92.72;51.90;;;13.60;99.90;;;;;;5091320;28;20048;-67
2022/09/24 00:49:18;;;;;;;90.60;51.23;;;13.60;99.90;;;;;;5092266;28;20048;-65
2022/09/24 00:51:47;;;;;;;93.65;51.03;;;13.60;99.90;;;;;;5092397;28;20050;-69
2022/09/24 00:54:27;;;;;;;95.20;49.45;;;13.60;99.90;;;;;;5092443;28;20051;-65
2022/09/24 00:56:54;;;;;;;99.30;51.78;;;14.00;99.90;;;;;;5092430;28;20044;-65
2022/09/24 00:59:22;;;;;;;114.25;54.50;;;13.60;99.90;;;;;;5092369;28;20095;-66
2022/09/24 01:01:50;;;;;;;94.40;50.92;;;13.80;99.90;;;;;;5091748;28;20496;-66
2022/09/24 01:04:20;;;;;;;89.28;50.67;;;13.70;99.90;;;;;;5092276;28;20048;-66
2022/09/24 01:06:50;;;;;;;102.38;52.88;;;14.00;99.90;;;;;;5092268;28;20066;-66
2022/09/24 01:09:18;;;;;;;97.70;51.83;;;13.80;99.90;;;;;;5092503;28;20139;-67
2022/09/24 01:11:52;;;;;;;89.90;48.80;;;13.90;99.90;;;;;;5092178;28;20387;-65
2022/09/24 01:14:50;;;;;;;95.88;50.10;;;13.90;99.90;;;;;;5092223;28;20044;-65
2022/09/24 01:17:34;;;;;;;94.25;48.17;;;13.60;99.90;;;;;;5091866;28;20044;-67
2022/09/24 01:20:15;;;;;;;90.72;50.63;;;13.80;99.90;;;;;;5092298;28;20051;-65
2022/09/24 01:23:28;;;;;;;90.20;49.10;;;13.90;99.90;;;;;;5092196;28;20236;-65
2022/09/24 01:26:05;;;;;;;92.15;50.55;;;13.70;99.90;;;;;;5068567;28;20056;-65
2022/09/24 01:28:59;;;;;;;101.60;50.50;;;13.90;99.90;;;;;;5094021;28;20555;-68
2022/09/24 01:31:30;;;;;;;101.28;52.65;;;13.70;99.90;;;;;;5096058;28;20488;-65
2022/09/24 01:34:00;;;;;;;96.97;50.00;;;13.70;99.90;;;;;;5096227;28;20052;-65
2022/09/24 01:36:28;;;;;;;74.55;41.03;;;13.60;99.90;;;;;;5094989;28;20177;-65
2022/09/24 01:38:57;;;;;;;66.80;38.60;;;13.80;99.90;;;;;;5096059;28;20047;-66
2022/09/24 01:41:23;;;;;;;76.30;40.78;;;13.80;99.90;;;;;;5096020;28;20044;-66
2022/09/24 01:43:49;;;;;;;51.95;29.40;;;13.70;99.90;;;;;;5096008;28;20040;-66
2022/09/24 01:46:18;;;;;;;;;;;14.00;99.90;;;;;;5096024;28;20044;-66
2022/09/24 01:48:44;;;;;;;35.53;13.13;;;13.80;99.90;;;;;;5095771;28;19927;-66
2022/09/24 01:51:22;;;;;;;;;;;14.00;99.90;;;;;;5096267;28;20055;-65
2022/09/24 01:53:54;;;;;;;11.90;5.10;;;14.20;99.90;;;;;;5095789;28;19927;-68
2022/09/24 01:56:33;;;;;;;15.20;4.00;;;13.70;99.90;;;;;;5095759;28;20048;-65
2022/09/24 01:59:19;;;;;;;11.20;2.28;;;13.80;99.90;;;;;;5095764;28;20546;-67
2022/09/24 02:02:15;;;;;;;11.38;2.15;;;13.90;99.90;;;;;;5095132;28;20464;-66
2022/09/24 02:04:46;;;;;;;8.75;2.10;;;13.50;99.90;;;;;;5095497;28;20059;-65
2022/09/24 02:07:28;;;;;;;7.00;2.22;;;14.70;99.90;;;;;;5095551;28;20186;-67
2022/09/24 02:09:54;;;;;;;10.05;2.50;;;14.30;99.90;;;;;;5095516;28;20112;-66
2022/09/24 02:12:28;;;;;;;8.02;2.30;;;14.00;99.90;;;;;;5095043;28;20621;-65
2022/09/24 02:15:05;;;;;;;10.75;2.10;;;13.90;99.90;;;;;;5095183;28;20043;-65
2022/09/24 02:17:34;;;;;;;12.93;2.30;;;13.90;99.90;;;;;;5095362;28;20059;-66
2022/09/24 02:20:03;;;;;;;8.15;1.80;;;14.20;99.90;;;;;;5095233;28;20127;-67
2022/09/24 02:22:29;;;;;;;6.20;1.83;;;14.30;99.90;;;;;;5095145;28;20154;-64
2022/09/24 02:25:00;;;;;;;8.43;2.10;;;14.20;99.90;;;;;;5095154;28;20059;-65
2022/09/24 02:27:29;;;;;;;12.13;1.67;;;14.10;99.90;;;;;;5095181;28;20369;-66
2022/09/24 02:29:59;;;;;;;6.10;2.13;;;14.10;99.90;;;;;;5093127;28;20369;-68
2022/09/24 02:32:28;;;;;;;7.60;1.75;;;14.20;99.90;;;;;;5094914;28;20044;-65
2022/09/24 02:35:02;;;;;;;9.18;2.05;;;14.40;99.90;;;;;;5095012;28;20507;-65
2022/09/24 02:37:28;;;;;;;12.13;2.05;;;14.00;99.90;;;;;;5094712;28;20518;-68
2022/09/24 02:39:54;;;;;;;34.10;3.28;;;14.30;99.90;;;;;;5094699;28;20076;-65
2022/09/24 02:42:21;;;;;;;6.43;1.73;;;14.20;99.90;;;;;;5095159;28;20044;-65
2022/09/24 02:44:47;;;;;;;10.38;2.40;;;14.20;99.90;;;;;;5094234;28;20832;-65
2022/09/24 02:47:13;;;;;;;9.25;1.92;;;14.20;99.90;;;;;;5093510;28;20059;-66
2022/09/24 02:49:39;;;;;;;11.38;2.33;;;14.20;99.90;;;;;;5094776;28;20071;-66
2022/09/24 02:52:04;;;;;;;;;;;14.10;99.90;;;;;;5095025;28;20051;-65
2022/09/24 02:54:30;;;;;;;11.55;2.20;;;14.00;99.90;;;;;;5094592;28;20279;-65
2022/09/24 02:56:56;;;;;;;16.30;2.80;;;14.00;99.90;;;;;;5094505;28;20079;-65
2022/09/24 02:59:22;;;;;;;9.35;2.28;;;13.90;99.90;;;;;;5094197;28;20052;-68
2022/09/24 03:01:48;;;;;;;11.20;2.25;;;14.10;99.90;;;;;;5094416;28;20434;-66
2022/09/24 03:04:15;;;;;;;16.10;2.45;;;13.80;99.90;;;;;;5094347;28;20044;-65
2022/09/24 03:06:41;;;;;;;15.05;3.30;;;13.80;99.90;;;;;;5094328;28;20428;-65
2022/09/24 03:09:06;;;;;;;18.15;3.00;;;14.10;99.90;;;;;;5094330;28;20044;-65
2022/09/24 03:11:32;;;;;;;15.32;2.28;;;14.00;99.90;;;;;;5094312;28;20107;-64
2022/09/24 03:13:58;;;;;;;;;;;13.90;99.90;;;;;;5093000;28;20056;-65
2022/09/24 03:16:24;;;;;;;13.85;2.45;;;13.90;99.90;;;;;;5094240;28;19926;-65
2022/09/24 03:18:49;;;;;;;12.15;2.38;;;13.80;99.90;;;;;;5094154;28;20071;-65
2022/09/24 03:21:18;;;;;;;15.20;2.38;;;14.20;99.90;;;;;;5094339;28;20055;-65
2022/09/24 03:23:44;;;;;;;14.43;2.35;;;14.10;99.90;;;;;;5094082;28;20040;-65
2022/09/24 03:26:10;;;;;;;11.00;2.33;;;14.10;99.90;;;;;;5093973;28;20055;-66
2022/09/24 03:28:36;;;;;;;;;;;13.90;99.90;;;;;;5094031;28;20048;-64
2022/09/24 03:31:02;;;;;;;13.23;2.40;;;14.10;99.90;;;;;;5093521;28;19920;-65
2022/09/24 03:33:35;;;;;;;11.23;2.65;;;13.90;99.90;;;;;;5093463;28;20507;-69
2022/09/24 03:36:21;;;;;;;11.90;2.63;;;14.30;99.90;;;;;;5093770;28;20126;-65
2022/09/24 03:38:48;;;;;;;19.45;3.13;;;14.00;99.90;;;;;;5093730;28;20055;-65
2022/09/24 03:41:15;;;;;;;12.40;2.45;;;14.10;99.90;;;;;;5093032;28;20083;-68
2022/09/24 03:43:41;;;;;;;15.73;2.55;;;13.60;99.90;;;;;;5092573;28;20499;-64
2022/09/24 03:46:08;;;;;;;13.77;2.38;;;13.80;99.90;;;;;;5092246;28;20048;-64
2022/09/24 03:48:35;;;;;;;12.70;2.40;;;13.90;99.90;;;;;;5093562;28;20109;-65
2022/09/24 03:51:07;;;;;;;17.00;2.65;;;14.40;99.90;;;;;;5091809;28;20052;-64
2022/09/24 03:53:33;;;;;;;18.95;3.05;;;13.80;99.90;;;;;;5093330;28;20566;-64
2022/09/24 03:55:59;;;;;;;20.48;3.08;;;14.30;99.90;;;;;;5093183;28;20056;-68
2022/09/24 03:58:25;;;;;;;18.92;3.65;;;14.00;99.90;;;;;;5093178;28;20083;-66
2022/09/24 04:00:54;;;;;;;14.82;2.78;;;13.90;99.90;;;;;;5093423;28;20093;-67
2022/09/24 04:03:23;;;;;;;25.20;3.42;;;14.20;99.90;;;;;;5093226;28;20052;-65
2022/09/24 04:05:50;;;;;;;22.40;3.83;;;13.90;99.90;;;;;;5093165;28;20051;-65
2022/09/24 04:08:18;;;;;;;20.95;4.00;;;14.10;99.90;;;;;;5093120;28;20048;-69
2022/09/24 04:10:50;;;;;;;13.45;2.60;;;14.20;99.90;;;;;;5092973;28;20052;-67
2022/09/24 04:13:17;;;;;;;17.48;2.88;;;13.80;99.90;;;;;;5092991;28;20063;-65
2022/09/24 04:15:43;;;;;;;13.35;2.75;;;14.80;99.90;;;;;;5093008;28;20395;-65
2022/09/24 04:18:09;;;;;;;23.00;3.20;;;14.00;99.90;;;;;;5093016;28;20052;-67
2022/09/24 04:20:36;;;;;;;18.50;3.00;;;14.20;99.90;;;;;;5092896;28;20051;-65
2022/09/24 04:23:02;;;;;;;18.38;3.45;;;13.90;99.90;;;;;;5092831;28;20141;-68
2022/09/24 04:25:31;;;;;;;16.13;2.72;;;13.90;99.90;;;;;;5092879;28;20090;-63
2022/09/24 04:28:01;;;;;;;21.42;2.90;;;15.10;99.90;;;;;;5092715;28;20108;-65
2022/09/24 04:30:28;;;;;;;17.75;3.25;;;13.90;99.90;;;;;;5092691;28;20411;-67
2022/09/24 04:32:54;;;;;;;17.65;4.00;;;14.10;99.90;;;;;;5092692;28;20051;-64
2022/09/24 04:35:22;;;;;;;20.38;3.63;;;14.20;99.90;;;;;;5092747;28;20388;-63
2022/09/24 04:37:48;;;;;;;23.15;2.80;;;13.90;99.90;;;;;;5092640;28;20048;-66
2022/09/24 04:40:15;;;;;;;;;;;14.00;99.90;;;;;;5092522;28;20496;-69
2022/09/24 04:42:41;;;;;;;22.05;3.15;;;14.10;99.90;;;;;;5092621;28;19919;-64
2022/09/24 04:45:09;;;;;;;21.95;2.85;;;13.80;99.90;;;;;;5092609;28;20056;-64
2022/09/24 04:47:35;;;;;;;17.88;2.55;;;13.90;99.90;;;;;;5092525;28;20376;-65
2022/09/24 04:50:03;;;;;;;17.55;3.15;;;14.30;99.90;;;;;;5092226;28;20485;-64
2022/09/24 04:52:31;;;;;;;19.55;2.83;;;14.20;99.90;;;;;;5092379;28;20117;-65
2022/09/24 04:54:58;;;;;;;24.23;3.20;;;14.20;99.90;;;;;;5092287;28;20487;-64
2022/09/24 04:57:24;;;;;;;17.42;2.80;;;13.70;99.90;;;;;;5092435;28;20058;-69
2022/09/24 04:59:50;;;;;;;15.27;3.35;;;13.90;99.90;;;;;;5091152;28;20048;-65
2022/09/24 05:02:16;;;;;;;;;;;14.50;99.90;;;;;;5091892;28;20369;-64
2022/09/24 05:04:42;;;;;;;14.73;2.42;;;14.10;99.90;;;;;;5091133;28;19927;-63
2022/09/24 05:07:08;;;;;;;;;;;13.80;99.90;;;;;;5092791;28;20055;-64
2022/09/24 05:09:34;;;;;;;16.33;2.42;;;13.90;99.90;;;;;;5092239;28;19943;-69
2022/09/24 05:12:01;;;;;;;17.95;2.67;;;14.20;99.90;;;;;;5092410;28;20044;-64
2022/09/24 05:14:26;;;;;;;14.75;2.40;;;14.00;99.90;;;;;;5092292;28;20044;-62
2022/09/24 05:16:52;;;;;;;23.85;3.47;;;14.40;99.90;;;;;;5092488;28;20487;-64
2022/09/24 05:19:19;;;;;;;11.80;2.72;;;13.90;99.90;;;;;;5090891;28;20043;-65
2022/09/24 05:21:45;;;;;;;16.20;2.75;;;14.10;99.90;;;;;;5091108;28;20052;-66
2022/09/24 05:24:11;;;;;;;19.73;3.40;;;14.00;99.90;;;;;;5090889;28;20086;-64
2022/09/24 05:29:21;;;;;;;24.33;3.53;;;13.60;99.90;;;;;;5091878;28;20074;-63
2022/09/24 05:31:47;;;;;;;26.58;3.05;;;14.00;99.90;;;;;;5091964;28;20056;-63
2022/09/24 05:34:13;;;;;;;19.77;2.90;;;14.00;99.90;;;;;;5092299;28;20059;-63
2022/09/24 05:36:39;;;;;;;16.55;2.75;;;14.10;99.90;;;;;;5092038;28;20044;-64
2022/09/24 05:39:05;;;;;;;15.77;3.00;;;13.80;99.90;;;;;;5091704;28;20052;-64
2022/09/24 05:41:31;;;;;;;17.77;2.75;;;13.60;99.90;;;;;;5090877;28;20401;-67
2022/09/24 05:43:58;;;;;;;16.90;3.30;;;13.50;99.90;;;;;;5091891;28;20040;-63
2022/09/24 05:46:24;;;;;;;18.70;2.67;;;13.70;99.90;;;;;;5091898;28;20052;-64
2022/09/24 05:48:50;;;;;;;12.27;3.30;;;14.30;99.90;;;;;;5091880;28;20127;-67
2022/09/24 05:51:15;;;;;;;;;;;13.80;99.90;;;;;;5092278;28;20083;-64
2022/09/24 05:53:41;;;;;;;12.43;2.78;;;14.00;99.90;;;;;;5091506;28;19927;-65
2022/09/24 05:56:06;;;;;;;18.88;3.78;;;13.90;99.90;;;;;;5091829;28;20063;-63
2022/09/24 05:58:32;;;;;;;14.20;2.60;;;13.90;99.90;;;;;;5092063;28;20396;-65
2022/09/24 06:01:01;;;;;;;15.77;2.70;;;14.00;99.90;;;;;;5091767;28;20043;-64
2022/09/24 06:03:28;;;;;;;11.63;2.40;;;14.90;99.90;;;;;;5091750;28;20123;-65
2022/09/24 06:05:55;;;;;;;11.68;2.45;;;13.90;99.90;;;;;;5091690;28;20456;-63
2022/09/24 06:08:21;;;;;;;12.15;2.00;;;14.00;99.90;;;;;;5091402;28;20056;-65
2022/09/24 06:10:47;;;;;;;13.43;2.33;;;13.90;99.90;;;;;;5091621;28;20043;-63
2022/09/24 06:13:18;;;;;;;10.70;1.73;;;13.80;99.90;;;;;;5091602;28;20184;-63
2022/09/24 06:15:44;;;;;;;9.45;2.20;;;13.60;99.90;;;;;;5095459;28;20047;-64
2022/09/24 06:18:11;;;;;;;9.48;1.95;;;13.60;99.90;;;;;;5095196;28;20101;-65
2022/09/24 06:20:37;;;;;;;10.32;2.08;;;14.10;99.90;;;;;;5095063;28;20123;-63
2022/09/24 06:23:03;;;;;;;8.65;2.10;;;14.00;99.90;;;;;;5095236;28;20044;-64
2022/09/24 06:25:29;;;;;;;9.43;1.85;;;13.50;99.90;;;;;;5094719;28;20078;-66
2022/09/24 06:28:00;;;;;;;11.43;2.45;;;13.80;99.90;;;;;;5087223;28;20511;-67
2022/09/24 06:30:31;;;;;;;10.60;2.08;;;13.90;99.90;;;;;;5093693;28;20059;-65
2022/09/24 06:33:07;;;;;;;10.20;1.90;;;13.90;99.90;;;;;;5094485;28;20056;-65
2022/09/24 06:35:37;;;;;;;10.52;1.88;;;14.10;99.90;;;;;;5093550;28;20040;-69
2022/09/24 06:38:03;;;;;;;7.50;1.80;;;14.10;99.90;;;;;;5092887;28;20493;-64
2022/09/24 06:40:29;;;;;;;9.55;1.88;;;13.90;99.90;;;;;;5093143;28;20051;-69
2022/09/24 06:42:55;;;;;;;8.50;2.10;;;14.00;99.90;;;;;;5093756;28;20484;-66
2022/09/24 06:45:21;;;;;;;6.20;1.90;;;14.30;99.90;;;;;;5093253;28;20139;-64
2022/09/24 06:47:58;;;;;;;13.85;2.00;;;14.10;99.90;;;;;;5093850;28;20067;-66
2022/09/24 06:50:27;;;;;;;5.22;1.65;;;14.00;99.90;;;;;;5093074;28;20083;-64
2022/09/24 06:52:53;;;;;;;5.93;1.42;;;14.20;99.90;;;;;;5093862;28;20036;-64
2022/09/24 06:55:18;;;;;;;5.75;1.63;;;14.20;99.90;;;;;;5094160;28;20048;-64
2022/09/24 06:57:44;;;;;;;6.65;1.30;;;13.90;99.90;;;;;;5093465;28;20071;-67
2022/09/24 07:00:11;;;;;;;;;;;14.10;99.90;;;;;;5094380;28;20052;-66
2022/09/24 07:02:37;;;;;;;8.32;1.52;;;14.20;99.90;;;;;;5093784;28;20401;-65
2022/09/24 07:05:04;;;;;;;6.40;1.60;;;14.30;99.90;;;;;;5093208;28;20044;-64
2022/09/24 07:07:31;;;;;;;6.72;1.60;;;14.10;99.90;;;;;;5093821;28;20051;-64
2022/09/24 07:09:58;;;;;;;7.88;1.40;;;14.20;99.90;;;;;;5093391;28;20458;-65
2022/09/24 07:12:24;;;;;;;12.60;2.83;;;14.20;99.90;;;;;;5093017;28;20040;-64
2022/09/24 07:14:50;;;;;;;10.55;1.75;;;14.40;99.90;;;;;;5093495;28;20048;-65
2022/09/24 07:17:15;;;;;;;;;;;14.60;99.90;;;;;;5094000;28;20052;-69
2022/09/24 07:19:41;;;;;;;8.73;1.90;;;14.20;99.90;;;;;;5091573;28;19923;-69
2022/09/24 07:22:07;;;;;;;6.30;2.10;;;14.20;99.90;;;;;;5092579;28;20139;-65
2022/09/24 07:24:33;;;;;;;;;;;14.00;99.90;;;;;;5093734;28;20461;-64
2022/09/24 07:26:59;;;;;;;10.60;2.08;;;14.70;99.90;;;;;;5092033;28;20015;-64
2022/09/24 07:29:25;;;;;;;8.13;1.55;;;14.30;99.90;;;;;;5092474;28;20472;-65
2022/09/24 07:31:50;;;;;;;16.13;1.85;;;14.50;99.90;;;;;;5091950;28;20450;-65
2022/09/24 07:34:16;;;;;;;13.77;2.63;;;14.30;99.90;;;;;;5093262;28;20052;-69
2022/09/24 07:36:42;;;;;;;;;;;14.30;99.90;;;;;;5094216;28;20101;-65
2022/09/24 07:39:08;;;;;;;7.88;1.38;;;15.10;99.90;;;;;;5093775;28;19928;-66
2022/09/24 07:41:34;;;;;;;8.23;2.05;;;14.30;99.90;;;;;;5093550;28;20127;-65
2022/09/24 07:44:00;;;;;;;6.82;1.58;;;14.80;99.90;;;;;;5093621;28;20123;-65
2022/09/24 07:46:26;;;;;;;11.43;1.70;;;14.50;99.90;;;;;;5092414;28;20053;-64
2022/09/24 07:48:55;;;;;;;6.05;2.00;;;15.00;99.90;;;;;;5093214;28;20059;-66
2022/09/24 07:51:26;;;;;;;7.15;1.55;;;15.00;99.90;;;;;;5093476;28;20067;-64
2022/09/24 07:53:52;;;;;;;9.25;1.50;;;14.70;99.90;;;;;;5093395;28;20047;-68
2022/09/24 07:56:18;;;;;;;;;;;14.80;99.90;;;;;;5092594;28;20052;-64
2022/09/24 07:58:46;;;;;;;4.38;1.23;;;14.60;99.90;;;;;;5093380;28;20022;-67
2022/09/24 08:01:12;;;;;;;7.88;1.98;;;14.70;99.90;;;;;;5092093;28;20463;-65
2022/09/24 08:03:39;;;;;;;12.40;2.08;;;14.70;99.90;;;;;;5093014;28;20055;-63
2022/09/24 08:06:05;;;;;;;8.98;1.60;;;14.70;99.90;;;;;;5093186;28;20048;-65
2022/09/24 08:08:31;;;;;;;10.48;1.80;;;14.80;99.90;;;;;;5093282;28;20078;-65
2022/09/24 08:10:56;;;;;;;10.07;1.52;;;14.50;99.90;;;;;;5093182;28;20060;-68
2022/09/24 08:13:23;;;;;;;;;;;15.10;99.90;;;;;;5093183;28;20042;-65
2022/09/24 08:15:58;;;;;;;8.48;2.08;;;15.00;99.90;;;;;;5093084;28;19920;-65
2022/09/24 08:18:24;;;;;;;13.02;1.92;;;15.00;99.90;;;;;;5092827;28;20438;-65
2022/09/24 08:20:50;;;;;;;9.68;1.65;;;15.10;99.90;;;;;;5092743;28;20586;-64
2022/09/24 08:23:15;;;;;;;9.88;1.58;;;14.90;99.90;;;;;;5093269;28;20051;-65
2022/09/24 08:25:41;;;;;;;;;;;14.80;99.90;;;;;;5083077;28;20043;-65
2022/09/24 08:28:10;;;;;;;6.80;1.60;;;15.10;99.90;;;;;;5090359;28;20397;-70
2022/09/24 08:30:38;;;;;;;6.13;2.03;;;15.30;99.90;;;;;;5092370;28;20056;-66
2022/09/24 08:33:06;;;;;;;5.97;1.23;;;14.80;99.90;;;;;;5091309;28;20337;-69
2022/09/24 08:35:33;;;;;;;3.00;1.00;;;15.20;99.90;;;;;;5092195;28;20151;-69
2022/09/24 08:38:02;;;;;;;7.05;1.40;;;15.00;99.90;;;;;;5091297;28;20052;-65
2022/09/24 08:40:37;;;;;;;7.78;1.17;;;14.80;99.90;;;;;;5091481;28;20044;-63
2022/09/24 08:43:16;;;;;;;3.88;1.13;;;15.10;99.90;;;;;;5091825;28;20131;-64
2022/09/24 08:48:36;;;;;;;6.45;1.45;;;15.10;99.90;;;;;;5092205;28;20152;-69
2022/09/24 08:51:06;;;;;;;10.10;1.83;;;15.00;99.90;;;;;;5091805;28;20408;-70
2022/09/24 08:53:34;;;;;;;11.13;1.98;;;15.20;99.90;;;;;;5091429;28;20044;-73
2022/09/24 08:56:00;;;;;;;9.63;1.75;;;14.90;99.90;;;;;;5091991;28;20044;-64
2022/09/24 08:58:45;;;;;;;;;;;15.20;99.90;;;;;;5092165;28;20062;-65
2022/09/24 09:01:10;;;;;;;9.32;1.60;;;15.20;99.90;;;;;;5090528;28;19920;-64
2022/09/24 09:03:51;;;;;;;8.10;2.00;;;15.20;99.90;;;;;;5090643;28;20448;-65
2022/09/24 09:07:01;;;;;;;8.00;1.48;;;15.70;99.90;;;;;;5092368;28;20036;-65
2022/09/24 09:09:47;;;;;;;8.32;2.00;;;15.40;99.90;;;;;;5092247;28;20157;-64
2022/09/24 09:12:33;;;;;;;6.53;1.40;;;15.90;99.90;;;;;;5092006;28;20051;-66
2022/09/24 09:15:13;;;;;;;8.60;1.63;;;15.90;99.90;;;;;;5091979;28;20056;-66
2022/09/24 09:17:54;;;;;;;11.15;1.92;;;15.80;99.90;;;;;;5092264;28;20048;-65
2022/09/24 09:20:37;;;;;;;8.50;2.08;;;16.00;99.90;;;;;;5092328;28;20407;-65
2022/09/24 09:23:33;;;;;;;6.38;1.40;;;15.70;99.90;;;;;;5091912;28;20127;-65
2022/09/24 09:25:59;;;;;;;11.63;1.75;;;15.60;99.90;;;;;;5090863;28;20130;-65
2022/09/24 09:28:26;;;;;;;11.32;2.00;;;15.90;99.90;;;;;;5091871;28;20047;-65
2022/09/24 09:30:55;;;;;;;17.50;2.92;;;15.90;99.90;;;;;;5091093;28;20117;-64
2022/09/24 09:33:29;;;;;;;11.80;1.88;;;15.80;99.90;;;;;;5091879;28;20044;-65
2022/09/24 09:36:27;;;;;;;12.27;2.03;;;15.90;99.90;;;;;;5091838;28;20052;-65
2022/09/24 09:39:20;;;;;;;11.07;2.00;;;15.80;99.90;;;;;;5091833;28;20052;-67
2022/09/24 09:41:56;;;;;;;10.05;2.03;;;15.80;99.90;;;;;;5091925;28;20052;-71
2022/09/24 09:44:28;;;;;;;12.77;3.20;;;15.80;99.90;;;;;;5091840;28;20065;-64
2022/09/24 09:47:14;;;;;;;13.88;2.05;;;16.00;99.90;;;;;;5091558;28;20126;-65
2022/09/24 09:49:44;;;;;;;14.43;2.60;;;15.50;99.90;;;;;;5094146;28;20043;-66
2022/09/24 09:52:19;;;;;;;17.10;2.45;;;15.70;99.90;;;;;;5087846;28;20416;-65
2022/09/24 09:54:45;;;;;;;14.13;2.33;;;16.20;99.90;;;;;;5094851;28;20047;-65
2022/09/24 09:57:16;;;;;;;14.18;1.98;;;16.40;99.90;;;;;;5095014;28;20056;-66
2022/09/24 09:59:49;;;;;;;14.38;1.83;;;15.70;99.90;;;;;;5094235;28;20510;-64
2022/09/24 10:02:32;;;;;;;9.15;1.88;;;15.70;99.90;;;;;;5095052;28;20401;-65
2022/09/24 10:05:00;;;;;;;8.32;1.60;;;15.80;99.90;;;;;;5095382;28;20044;-65
2022/09/24 10:07:26;;;;;;;10.38;2.63;;;15.60;99.90;;;;;;5094471;28;20086;-65
2022/09/24 10:10:00;;;;;;;;;;;15.40;99.90;;;;;;5095370;28;20130;-65
2022/09/24 10:12:26;;;;;;;18.10;2.20;;;15.50;99.90;;;;;;5095041;28;19920;-65
2022/09/24 10:14:55;;;;;;;;;;;15.10;99.90;;;;;;5093971;28;20756;-68
2022/09/24 10:17:24;;;;;;;10.55;2.00;;;15.20;99.90;;;;;;5094451;28;19920;-64
2022/09/24 10:19:50;;;;;;;13.63;2.60;;;14.70;99.90;;;;;;5095189;28;20044;-65
2022/09/24 10:22:23;;;;;;;;;;;14.70;99.90;;;;;;5095009;28;20046;-77
2022/09/24 10:24:51;;;;;;;10.02;2.05;;;14.50;99.90;;;;;;5089244;28;20013;-64
2022/09/24 10:27:29;;;;;;;12.20;2.08;;;14.90;99.90;;;;;;5094371;28;20389;-62
2022/09/24 10:32:40;;;;;;;12.57;2.47;;;14.60;99.90;;;;;;5094862;28;20044;-62
2022/09/24 10:35:28;;;;;;;12.13;2.03;;;14.50;99.90;;;;;;5093407;28;20484;-63
2022/09/24 10:37:59;;;;;;;17.15;2.05;;;14.60;99.90;;;;;;5093091;28;20106;-66
2022/09/24 10:40:30;;;;;;;6.63;1.85;;;14.50;99.90;;;;;;5094921;28;20166;-63
2022/09/24 10:42:57;;;;;;;10.88;1.88;;;14.20;99.90;;;;;;5093376;28;20098;-63
2022/09/24 10:45:46;;;;;;;13.35;1.95;;;14.30;99.90;;;;;;5094556;28;20044;-68
2022/09/24 10:48:17;;;;;;;10.05;2.00;;;14.30;99.90;;;;;;5094667;28;20086;-64
2022/09/24 10:50:58;;;;;;;9.00;1.77;;;14.50;99.90;;;;;;5094744;28;20091;-64
2022/09/24 10:54:16;;;;;;;11.02;2.13;;;14.60;99.90;;;;;;5093689;28;20047;-66
2022/09/24 10:57:24;;;;;;;8.77;1.80;;;14.50;99.90;;;;;;5084423;28;20448;-65
2022/09/24 11:00:09;;;;;;;12.45;1.55;;;14.30;99.90;;;;;;5094180;28;20047;-64
2022/09/24 11:02:43;;;;;;;13.27;1.60;;;14.50;99.90;;;;;;5094038;28;20048;-67
2022/09/24 11:05:18;;;;;;;10.50;1.92;;;14.50;99.90;;;;;;5093993;28;20070;-67
2022/09/24 11:07:56;;;;;;;10.50;1.70;;;14.70;99.90;;;;;;5093662;28;20121;-65
2022/09/24 11:10:48;;;;;;;13.43;1.75;;;14.80;99.90;;;;;;5093991;28;20048;-64
2022/09/24 11:13:29;;;;;;;11.80;2.00;;;14.70;99.90;;;;;;5093838;28;20100;-63
2022/09/24 11:16:31;;;;;;;10.70;1.67;;;14.90;99.90;;;;;;5094349;28;20090;-66
2022/09/24 11:19:26;;;;;;;10.65;2.10;;;14.90;99.90;;;;;;5093996;28;20454;-65
2022/09/24 11:22:10;;;;;;;9.07;2.10;;;14.70;99.90;;;;;;5085063;28;20103;-63
2022/09/24 11:25:13;;;;;;;11.88;1.90;;;14.50;99.90;;;;;;5073169;28;20075;-66
2022/09/24 11:27:58;;;;;;;8.95;1.67;;;14.70;99.90;;;;;;5087176;28;20048;-63
2022/09/24 11:30:34;;;;;;;13.60;2.38;;;14.70;99.90;;;;;;5093468;28;20056;-68
2022/09/24 11:33:41;;;;;;;10.50;1.70;;;14.90;99.90;;;;;;5093521;28;20441;-65
2022/09/24 11:36:33;;;;;;;10.88;2.08;;;14.80;99.90;;;;;;5087353;28;20113;-66
2022/09/24 11:39:21;;;;;;;12.10;2.22;;;16.70;99.90;;;;;;5093243;28;20139;-67
2022/09/24 11:41:49;;;;;;;8.90;1.90;;;15.00;99.90;;;;;;5093233;28;20083;-64
2022/09/24 11:44:45;;;;;;;7.55;1.85;;;14.90;99.90;;;;;;5093390;28;20125;-66
2022/09/24 11:47:35;;;;;;;10.07;2.50;;;15.40;99.90;;;;;;5093425;28;20168;-65
2022/09/24 11:50:27;;;;;;;9.77;2.25;;;14.80;99.90;;;;;;5093629;28;20047;-66
2022/09/24 11:53:05;;;;;;;8.23;1.75;;;14.70;99.90;;;;;;5093563;28;20455;-65
2022/09/24 11:55:38;;;;;;;10.35;1.85;;;15.20;99.90;;;;;;5093053;28;20048;-66
2022/09/24 11:58:11;;;;;;;14.82;2.47;;;14.50;99.90;;;;;;5093348;28;20494;-66
2022/09/24 12:01:07;;;;;;;14.20;2.03;;;14.80;99.90;;;;;;5093282;28;20055;-63
2022/09/24 12:03:42;;;;;;;11.65;2.53;;;15.20;99.90;;;;;;5076556;28;20083;-65
2022/09/24 12:06:18;;;;;;;13.55;2.70;;;15.10;99.90;;;;;;5093320;28;20100;-68
2022/09/24 12:09:00;;;;;;;9.60;1.77;;;15.30;99.90;;;;;;5092822;28;20048;-66
2022/09/24 12:11:35;;;;;;;15.40;2.22;;;15.50;99.90;;;;;;5091439;28;20470;-66
2022/09/24 12:14:11;;;;;;;9.40;1.83;;;15.40;99.90;;;;;;5092915;28;20067;-64
2022/09/24 12:16:39;;;;;;;10.35;2.22;;;15.50;99.90;;;;;;5092925;28;20052;-66
2022/09/24 12:19:15;;;;;;;15.55;2.47;;;15.50;99.90;;;;;;5091612;28;20135;-66
2022/09/24 12:21:44;;;;;;;19.70;2.47;;;15.20;99.90;;;;;;5093048;28;20384;-65
2022/09/24 12:24:31;;;;;;;11.55;1.75;;;16.00;99.90;;;;;;5092758;28;20048;-68
2022/09/24 12:27:01;;;;;;;13.77;2.45;;;15.80;99.90;;;;;;5090921;28;20071;-62
2022/09/24 12:32:53;;;;;;;15.43;2.95;;;16.00;99.90;;;;;;5092044;28;20051;-64
2022/09/24 12:35:27;;;;;;;9.82;2.00;;;16.30;99.90;;;;;;5091896;28;20472;-64
2022/09/24 12:38:02;;;;;;;11.60;1.95;;;16.60;99.90;;;;;;5090814;28;20399;-79
2022/09/24 12:40:49;;;;;;;13.63;2.13;;;16.60;99.90;;;;;;5090786;28;20411;-64
2022/09/24 12:43:30;;;;;;;11.13;1.95;;;14.60;99.90;;;;;;5092080;28;20044;-64
2022/09/24 12:46:03;;;;;;;13.18;2.20;;;16.20;99.90;;;;;;5091670;28;20488;-64
2022/09/24 12:48:31;;;;;;;9.48;2.10;;;16.40;99.90;;;;;;5091687;28;20047;-64
2022/09/24 12:51:00;;;;;;;13.57;2.22;;;16.20;99.90;;;;;;5091745;28;20392;-69
2022/09/24 12:53:34;;;;;;;13.82;2.85;;;16.40;99.90;;;;;;5074604;28;20049;-65
2022/09/24 12:56:00;;;;;;;15.73;2.58;;;15.80;99.90;;;;;;5071505;28;20123;-65
2022/09/24 12:58:34;;;;;;;15.02;1.90;;;15.80;99.90;;;;;;5079675;28;20188;-74
2022/09/24 13:01:11;;;;;;;15.85;2.55;;;16.00;99.90;;;;;;5091402;28;20165;-71
2022/09/24 13:03:38;;;;;;;10.10;2.20;;;15.60;99.90;;;;;;5091841;28;20051;-65
2022/09/24 13:06:21;;;;;;;9.75;2.00;;;16.10;99.90;;;;;;5092132;28;20102;-65
2022/09/24 13:08:46;;;;;;;7.18;2.10;;;15.50;99.90;;;;;;5091852;28;20048;-69
2022/09/24 13:11:26;;;;;;;;;;;15.90;99.90;;;;;;5092542;28;20040;-66
2022/09/24 13:14:10;;;;;;;13.88;2.33;;;15.40;99.90;;;;;;5099087;28;19927;-70
2022/09/24 13:16:39;;;;;;;14.32;2.25;;;15.50;99.90;;;;;;5111071;28;20051;-66
2022/09/24 13:19:24;;;;;;;21.23;3.20;;;15.60;99.90;;;;;;5111295;28;20764;-66
2022/09/24 13:21:58;;;;;;;15.00;2.20;;;15.60;99.90;;;;;;5112132;28;20052;-65